createdAt,value
2018-12-17T00:01:13.262Z,-0.01
2018-12-17T00:02:40.174Z,-0.03
2018-12-17T00:04:07.220Z,-0.04
2018-12-17T00:05:34.240Z,-0.05
2018-12-17T00:07:01.207Z,-0.05
2018-12-17T00:08:31.944Z,-0.07
2018-12-17T00:09:55.400Z,-0.12
2018-12-17T00:11:22.376Z,-0.10
2018-12-17T00:12:49.325Z,-0.08
2018-12-17T00:14:16.365Z,-0.06
2018-12-17T00:15:43.535Z,-0.07
2018-12-17T00:17:10.503Z,-0.06
2018-12-17T00:18:37.648Z,-0.04
2018-12-17T00:20:04.631Z,-0.05
2018-12-17T00:21:31.716Z,-0.05
2018-12-17T00:22:58.472Z,-0.05
2018-12-17T00:24:25.550Z,-0.06
2018-12-17T00:25:52.733Z,-0.06
2018-12-17T00:27:19.671Z,-0.07
2018-12-17T00:28:46.504Z,-0.08
2018-12-17T00:30:13.583Z,-0.09
2018-12-17T00:31:40.436Z,-0.09
2018-12-17T00:33:07.450Z,-0.11
2018-12-17T00:34:34.412Z,-0.13
2018-12-17T00:36:01.660Z,-0.14
2018-12-17T00:37:28.660Z,-0.17
2018-12-17T00:38:55.867Z,-0.19
2018-12-17T00:40:22.717Z,-0.20
2018-12-17T00:41:49.595Z,-0.24
2018-12-17T00:43:16.558Z,-0.23
2018-12-17T00:44:43.629Z,-0.24
2018-12-17T00:46:10.965Z,-0.24
2018-12-17T00:47:38.118Z,-0.25
2018-12-17T00:49:05.292Z,-0.25
2018-12-17T00:50:32.422Z,-0.25
2018-12-17T00:51:59.346Z,-0.24
2018-12-17T00:53:26.311Z,-0.27
2018-12-17T00:54:53.177Z,-0.27
2018-12-17T00:56:20.246Z,-0.26
2018-12-17T00:57:47.048Z,-0.25
2018-12-17T00:59:14.128Z,-0.19
2018-12-17T01:00:41.268Z,-0.22
2018-12-17T01:02:08.116Z,-0.21
2018-12-17T01:03:35.283Z,-0.19
2018-12-17T01:05:02.302Z,-0.19
2018-12-17T01:06:29.545Z,-0.16
2018-12-17T01:07:56.412Z,-0.15
2018-12-17T01:09:23.471Z,-0.18
2018-12-17T01:10:50.583Z,-0.18
2018-12-17T01:12:17.501Z,-0.15
2018-12-17T01:13:44.523Z,-0.16
2018-12-17T01:15:11.464Z,-0.17
2018-12-17T01:16:38.499Z,-0.15
2018-12-17T01:18:05.500Z,-0.14
2018-12-17T01:19:32.438Z,-0.15
2018-12-17T01:20:59.458Z,-0.12
2018-12-17T01:22:26.550Z,-0.08
2018-12-17T01:23:53.631Z,-0.07
2018-12-17T01:25:20.812Z,-0.06
2018-12-17T01:26:48.029Z,-0.07
2018-12-17T01:28:21.917Z,-0.06
2018-12-17T01:29:42.219Z,-0.03
2018-12-17T01:31:09.431Z,-0.02
2018-12-17T01:32:36.214Z,0.00
2018-12-17T01:34:03.180Z,-0.01
2018-12-17T01:35:30.214Z,-0.04
2018-12-17T01:36:56.980Z,-0.04
2018-12-17T01:38:24.073Z,-0.03
2018-12-17T01:39:51.073Z,-0.04
2018-12-17T01:41:18.168Z,-0.05
2018-12-17T01:42:44.904Z,-0.03
2018-12-17T01:44:11.991Z,0.01
2018-12-17T01:45:39.035Z,0.03
2018-12-17T01:47:06.087Z,0.06
2018-12-17T01:48:33.231Z,0.11
2018-12-17T01:50:00.128Z,0.18
2018-12-17T01:51:27.258Z,0.24
2018-12-17T01:52:54.191Z,0.29
2018-12-17T01:54:21.308Z,0.32
2018-12-17T01:55:48.300Z,0.30
2018-12-17T01:57:15.561Z,0.29
2018-12-17T01:58:42.396Z,0.25
2018-12-17T02:00:09.519Z,0.21
2018-12-17T02:01:42.475Z,0.16
2018-12-17T02:03:03.557Z,0.12
2018-12-17T02:04:30.337Z,0.13
2018-12-17T02:05:57.560Z,0.11
2018-12-17T02:07:24.420Z,0.12
2018-12-17T02:08:51.511Z,0.18
2018-12-17T02:10:18.700Z,0.23
2018-12-17T02:11:45.702Z,0.28
2018-12-17T02:13:12.819Z,0.27
2018-12-17T02:14:39.963Z,0.27
2018-12-17T02:16:06.948Z,0.28
2018-12-17T02:17:33.963Z,0.32
2018-12-17T02:19:01.088Z,0.37
2018-12-17T02:20:27.904Z,0.42
2018-12-17T02:21:54.968Z,0.44
2018-12-17T02:23:22.118Z,0.43
2018-12-17T02:24:49.097Z,0.36
2018-12-17T02:26:16.328Z,0.33
2018-12-17T02:27:43.502Z,0.23
2018-12-17T02:29:10.559Z,0.18
2018-12-17T02:30:37.565Z,0.20
2018-12-17T02:32:04.522Z,0.24
2018-12-17T02:33:31.457Z,0.23
2018-12-17T02:34:58.262Z,0.23
2018-12-17T02:36:25.300Z,0.27
2018-12-17T02:37:52.503Z,0.27
2018-12-17T02:39:19.642Z,0.27
2018-12-17T02:40:46.700Z,0.29
2018-12-17T02:42:13.719Z,0.33
2018-12-17T02:43:40.684Z,0.35
2018-12-17T02:45:07.800Z,0.36
2018-12-17T02:46:34.963Z,0.30
2018-12-17T02:48:01.871Z,0.31
2018-12-17T02:49:28.826Z,0.35
2018-12-17T02:50:56.018Z,0.35
2018-12-17T02:52:22.852Z,0.37
2018-12-17T02:53:49.781Z,0.37
2018-12-17T02:55:16.964Z,0.36
2018-12-17T02:56:44.145Z,0.34
2018-12-17T02:58:11.090Z,0.29
2018-12-17T02:59:38.151Z,0.26
2018-12-17T03:01:05.146Z,0.29
2018-12-17T03:02:32.120Z,0.32
2018-12-17T03:03:59.292Z,0.34
2018-12-17T03:05:26.447Z,0.40
2018-12-17T03:06:53.465Z,0.46
2018-12-17T03:08:20.369Z,0.49
2018-12-17T03:09:47.308Z,0.46
2018-12-17T03:11:14.486Z,0.41
2018-12-17T03:12:41.491Z,0.40
2018-12-17T03:14:08.499Z,0.41
2018-12-17T03:15:35.585Z,0.43
2018-12-17T03:17:02.890Z,0.46
2018-12-17T03:18:29.946Z,0.43
2018-12-17T03:19:56.976Z,0.42
2018-12-17T03:21:23.975Z,0.43
2018-12-17T03:22:51.165Z,0.47
2018-12-17T03:24:18.095Z,0.50
2018-12-17T03:25:45.058Z,0.53
2018-12-17T03:27:12.177Z,0.47
2018-12-17T03:28:39.136Z,0.44
2018-12-17T03:30:06.026Z,0.39
2018-12-17T03:31:33.061Z,0.41
2018-12-17T03:33:00.092Z,0.43
2018-12-17T03:34:27.044Z,0.36
2018-12-17T03:35:53.858Z,0.33
2018-12-17T03:37:20.802Z,0.32
2018-12-17T03:38:47.853Z,0.33
2018-12-17T03:40:14.855Z,0.29
2018-12-17T03:41:41.914Z,0.29
2018-12-17T03:43:08.940Z,0.30
2018-12-17T03:44:36.222Z,0.26
2018-12-17T03:46:03.253Z,0.26
2018-12-17T03:47:30.101Z,0.29
2018-12-17T03:48:57.350Z,0.31
2018-12-17T03:50:24.371Z,0.29
2018-12-17T03:51:51.175Z,0.29
2018-12-17T03:53:18.058Z,0.27
2018-12-17T03:54:45.236Z,0.22
2018-12-17T03:56:12.228Z,0.20
2018-12-17T03:57:39.284Z,0.20
2018-12-17T03:59:06.302Z,0.22
2018-12-17T04:11:03.640Z,0.34
2018-12-17T04:12:30.175Z,0.36
2018-12-17T04:13:57.062Z,0.38
2018-12-17T04:15:24.086Z,0.35
2018-12-17T04:16:51.027Z,0.34
2018-12-17T04:18:18.152Z,0.33
2018-12-17T04:19:45.110Z,0.32
2018-12-17T04:21:11.965Z,0.33
2018-12-17T04:22:39.100Z,0.33
2018-12-17T04:34:46.155Z,0.38
2018-12-17T04:36:12.577Z,0.37
2018-12-17T04:37:39.555Z,0.40
2018-12-17T04:39:06.505Z,0.37
2018-12-17T04:40:33.373Z,0.35
2018-12-17T04:42:00.722Z,0.32
2018-12-17T04:43:27.756Z,0.32
2018-12-17T04:44:54.676Z,0.29
2018-12-17T04:46:21.915Z,0.26
2018-12-17T04:47:48.834Z,0.26
2018-12-17T04:49:15.748Z,0.25
2018-12-17T04:50:42.898Z,0.21
2018-12-17T04:52:09.941Z,0.20
2018-12-17T05:05:54.077Z,0.41
2018-12-17T05:07:20.233Z,0.46
2018-12-17T05:08:47.072Z,0.49
2018-12-17T05:10:14.309Z,0.49
2018-12-17T05:11:41.353Z,0.46
2018-12-17T05:13:08.523Z,0.44
2018-12-17T05:14:35.703Z,0.43
2018-12-17T05:16:02.698Z,0.38
2018-12-17T05:17:29.556Z,0.34
2018-12-17T05:28:47.906Z,0.52
2018-12-17T05:31:40.936Z,0.53
2018-12-17T05:33:08.054Z,0.51
2018-12-17T05:34:35.310Z,0.52
2018-12-17T05:36:02.346Z,0.54
2018-12-17T05:37:29.306Z,0.57
2018-12-17T05:38:56.383Z,0.58
2018-12-17T05:40:23.422Z,0.57
2018-12-17T05:41:50.647Z,0.54
2018-12-17T05:43:17.845Z,0.55
2018-12-17T05:44:44.890Z,0.52
2018-12-17T05:46:12.069Z,0.51
2018-12-17T05:47:39.279Z,0.51
2018-12-17T05:49:06.294Z,0.51
2018-12-17T05:50:33.260Z,0.47
2018-12-17T05:52:00.161Z,0.42
2018-12-17T05:53:27.236Z,0.40
2018-12-17T06:11:32.761Z,0.67
2018-12-17T06:12:59.200Z,0.73
2018-12-17T06:14:26.043Z,0.75
2018-12-17T06:15:53.044Z,0.79
2018-12-17T06:17:20.010Z,0.78
2018-12-17T06:18:47.064Z,0.74
2018-12-17T06:20:14.201Z,0.71
2018-12-17T06:21:41.210Z,0.69
2018-12-17T06:23:08.268Z,0.67
2018-12-17T06:24:35.607Z,0.63
2018-12-17T06:26:02.673Z,0.61
2018-12-17T06:27:36.576Z,0.58
2018-12-17T06:28:56.794Z,0.56
2018-12-17T06:48:29.751Z,0.81
2018-12-17T06:49:56.264Z,0.79
2018-12-17T06:51:23.022Z,0.77
2018-12-17T06:52:50.162Z,0.73
2018-12-17T06:54:36.524Z,0.74
2018-12-17T07:19:09.388Z,1.03
2018-12-17T07:22:02.585Z,1.03
2018-12-17T07:23:29.795Z,0.97
2018-12-17T07:24:56.890Z,0.93
2018-12-17T07:26:24.022Z,0.88
2018-12-17T07:27:51.100Z,0.85
2018-12-17T07:29:18.326Z,0.81
2018-12-17T08:55:54.097Z,1.26
2018-12-17T08:58:28.422Z,1.24
2018-12-17T09:00:10.757Z,1.21
2018-12-17T09:51:26.368Z,1.67
2018-12-17T09:52:53.012Z,1.59
2018-12-17T09:54:20.068Z,1.53
